Terminal Aerodrome Forecast
Issued by NWS

Home | Current Version | Previous Version | Text Only | Print | Product List | Glossary On
Versions: 1 2 3 4 5 6 7 8 9 10 11 12 13 14 15 16 17 18 19 20 21 22
434
FTUS44 KSJT 111136
TAFSOA
TAF
KSOA 111136Z 1112/1212 18008KT 2SM BR OVC001 WS020/19045KT
      TEMPO 1112/1116 1SM BR OVC003
     FM111600 20011KT P6SM BKN015
     FM111900 22011KT P6SM SCT250
     FM120100 VRB04KT P6SM SCT250=

USA.gov is the U.S. government's official web portal to all federal, state and local government web resources and services.